sensor_id;sensor_type;location;lat;lon;timestamp;temperature;humidity
55083;DHT22;40978;52.850;6.506;2023-02-26T00:00:37;0.80;99.90
55083;DHT22;40978;52.850;6.506;2023-02-26T00:03:03;0.80;99.90
55083;DHT22;40978;52.850;6.506;2023-02-26T00:05:28;0.80;99.90
55083;DHT22;40978;52.850;6.506;2023-02-26T00:07:54;0.80;99.90
55083;DHT22;40978;52.850;6.506;2023-02-26T00:10:20;0.70;99.90
55083;DHT22;40978;52.850;6.506;2023-02-26T00:12:46;0.70;99.90
55083;DHT22;40978;52.850;6.506;2023-02-26T00:15:12;0.70;99.90
55083;DHT22;40978;52.850;6.506;2023-02-26T00:18:01;0.70;99.90
55083;DHT22;40978;52.850;6.506;2023-02-26T00:20:28;0.80;99.90
55083;DHT22;40978;52.850;6.506;2023-02-26T00:22:54;0.80;99.90
55083;DHT22;40978;52.850;6.506;2023-02-26T00:25:20;0.70;99.90
55083;DHT22;40978;52.850;6.506;2023-02-26T00:27:46;0.70;99.90
55083;DHT22;40978;52.850;6.506;2023-02-26T00:30:12;0.70;99.90
55083;DHT22;40978;52.850;6.506;2023-02-26T00:32:38;0.60;99.90
55083;DHT22;40978;52.850;6.506;2023-02-26T00:35:12;0.50;99.90
55083;DHT22;40978;52.850;6.506;2023-02-26T00:37:55;0.50;99.90
55083;DHT22;40978;52.850;6.506;2023-02-26T00:40:33;0.50;99.90
55083;DHT22;40978;52.850;6.506;2023-02-26T00:43:00;0.40;99.90
55083;DHT22;40978;52.850;6.506;2023-02-26T00:45:26;0.40;99.90
55083;DHT22;40978;52.850;6.506;2023-02-26T00:48:13;0.30;99.90
55083;DHT22;40978;52.850;6.506;2023-02-26T00:50:47;0.30;99.90
55083;DHT22;40978;52.850;6.506;2023-02-26T00:53:17;0.10;99.90
55083;DHT22;40978;52.850;6.506;2023-02-26T00:55:44;0.10;99.90
55083;DHT22;40978;52.850;6.506;2023-02-26T00:58:10;0.00;99.90
55083;DHT22;40978;52.850;6.506;2023-02-26T01:00:36;-0.10;99.90
55083;DHT22;40978;52.850;6.506;2023-02-26T01:03:02;-0.10;99.90
55083;DHT22;40978;52.850;6.506;2023-02-26T01:05:29;-0.10;99.90
55083;DHT22;40978;52.850;6.506;2023-02-26T01:10:29;-0.20;99.90
55083;DHT22;40978;52.850;6.506;2023-02-26T01:12:55;-0.20;99.90
55083;DHT22;40978;52.850;6.506;2023-02-26T01:15:22;-0.20;99.90
55083;DHT22;40978;52.850;6.506;2023-02-26T01:20:37;-0.20;99.90
55083;DHT22;40978;52.850;6.506;2023-02-26T01:23:08;-0.30;99.90
55083;DHT22;40978;52.850;6.506;2023-02-26T01:25:49;-0.20;99.90
55083;DHT22;40978;52.850;6.506;2023-02-26T01:28:16;-0.30;99.90
55083;DHT22;40978;52.850;6.506;2023-02-26T01:30:42;-0.30;99.90
55083;DHT22;40978;52.850;6.506;2023-02-26T01:33:15;-0.20;99.90
55083;DHT22;40978;52.850;6.506;2023-02-26T01:35:54;-0.20;99.90
55083;DHT22;40978;52.850;6.506;2023-02-26T01:38:40;-0.20;99.90
55083;DHT22;40978;52.850;6.506;2023-02-26T01:41:35;-0.20;99.90
55083;DHT22;40978;52.850;6.506;2023-02-26T01:44:12;-0.20;99.90
55083;DHT22;40978;52.850;6.506;2023-02-26T01:49:20;-0.20;99.90
55083;DHT22;40978;52.850;6.506;2023-02-26T01:54:13;-0.20;99.90
55083;DHT22;40978;52.850;6.506;2023-02-26T01:56:40;-0.10;99.90
55083;DHT22;40978;52.850;6.506;2023-02-26T01:59:08;-0.10;99.90
55083;DHT22;40978;52.850;6.506;2023-02-26T02:01:38;-0.10;99.90
55083;DHT22;40978;52.850;6.506;2023-02-26T02:04:07;-0.20;99.90
55083;DHT22;40978;52.850;6.506;2023-02-26T02:06:34;-0.10;99.90
55083;DHT22;40978;52.850;6.506;2023-02-26T02:09:01;-0.20;99.90
55083;DHT22;40978;52.850;6.506;2023-02-26T02:11:29;-0.20;99.90
55083;DHT22;40978;52.850;6.506;2023-02-26T02:14:07;-0.20;99.90
55083;DHT22;40978;52.850;6.506;2023-02-26T02:16:38;-0.20;99.90
55083;DHT22;40978;52.850;6.506;2023-02-26T02:31:06;-0.30;99.90
55083;DHT22;40978;52.850;6.506;2023-02-26T02:34:28;-0.30;99.90
55083;DHT22;40978;52.850;6.506;2023-02-26T02:36:34;-0.20;99.90
55083;DHT22;40978;52.850;6.506;2023-02-26T02:39:18;-0.30;99.90
55083;DHT22;40978;52.850;6.506;2023-02-26T02:44:26;-0.20;99.90
55083;DHT22;40978;52.850;6.506;2023-02-26T02:46:55;-0.20;99.90
55083;DHT22;40978;52.850;6.506;2023-02-26T02:49:30;-0.20;99.90
55083;DHT22;40978;52.850;6.506;2023-02-26T02:52:07;-0.20;99.90
55083;DHT22;40978;52.850;6.506;2023-02-26T02:54:46;-0.20;99.90
55083;DHT22;40978;52.850;6.506;2023-02-26T02:57:21;-0.20;99.90
55083;DHT22;40978;52.850;6.506;2023-02-26T02:59:56;-0.30;99.90
55083;DHT22;40978;52.850;6.506;2023-02-26T03:02:31;-0.30;99.90
55083;DHT22;40978;52.850;6.506;2023-02-26T03:05:00;-0.40;99.90
55083;DHT22;40978;52.850;6.506;2023-02-26T03:07:30;-0.30;99.90
55083;DHT22;40978;52.850;6.506;2023-02-26T03:09:57;-0.40;99.90
55083;DHT22;40978;52.850;6.506;2023-02-26T03:12:26;-0.40;99.90
55083;DHT22;40978;52.850;6.506;2023-02-26T03:14:52;-0.40;99.90
55083;DHT22;40978;52.850;6.506;2023-02-26T03:17:35;-0.40;99.90
55083;DHT22;40978;52.850;6.506;2023-02-26T03:20:09;-0.40;99.90
55083;DHT22;40978;52.850;6.506;2023-02-26T03:25:26;-0.50;99.90
55083;DHT22;40978;52.850;6.506;2023-02-26T03:28:22;-0.60;99.90
55083;DHT22;40978;52.850;6.506;2023-02-26T03:31:21;-0.60;99.90
55083;DHT22;40978;52.850;6.506;2023-02-26T03:36:36;-0.60;99.90
55083;DHT22;40978;52.850;6.506;2023-02-26T03:39:17;-0.60;99.90
55083;DHT22;40978;52.850;6.506;2023-02-26T03:41:59;-0.60;99.90
55083;DHT22;40978;52.850;6.506;2023-02-26T03:44:34;-0.60;99.90
55083;DHT22;40978;52.850;6.506;2023-02-26T03:47:05;-0.60;99.90
55083;DHT22;40978;52.850;6.506;2023-02-26T03:52:11;-0.60;99.90
55083;DHT22;40978;52.850;6.506;2023-02-26T03:54:46;-0.70;99.90
55083;DHT22;40978;52.850;6.506;2023-02-26T03:57:14;-0.70;99.90
55083;DHT22;40978;52.850;6.506;2023-02-26T03:59:40;-0.70;99.90
55083;DHT22;40978;52.850;6.506;2023-02-26T04:02:10;-0.70;99.90
55083;DHT22;40978;52.850;6.506;2023-02-26T04:05:47;-0.70;99.90
55083;DHT22;40978;52.850;6.506;2023-02-26T04:07:41;-0.70;99.90
55083;DHT22;40978;52.850;6.506;2023-02-26T04:10:09;-0.80;99.90
55083;DHT22;40978;52.850;6.506;2023-02-26T04:12:35;-0.80;99.90
55083;DHT22;40978;52.850;6.506;2023-02-26T04:15:01;-0.80;99.90
55083;DHT22;40978;52.850;6.506;2023-02-26T04:17:29;-0.80;99.90
55083;DHT22;40978;52.850;6.506;2023-02-26T04:19:55;-0.90;99.90
55083;DHT22;40978;52.850;6.506;2023-02-26T04:22:21;-0.80;99.90
55083;DHT22;40978;52.850;6.506;2023-02-26T04:24:46;-0.90;99.90
55083;DHT22;40978;52.850;6.506;2023-02-26T04:27:12;-0.90;99.90
55083;DHT22;40978;52.850;6.506;2023-02-26T04:29:38;-1.00;99.90
55083;DHT22;40978;52.850;6.506;2023-02-26T04:32:04;-1.00;99.90
55083;DHT22;40978;52.850;6.506;2023-02-26T04:34:29;-1.10;99.90
55083;DHT22;40978;52.850;6.506;2023-02-26T04:36:55;-1.10;99.90
55083;DHT22;40978;52.850;6.506;2023-02-26T04:39:21;-1.10;99.90
55083;DHT22;40978;52.850;6.506;2023-02-26T04:41:47;-1.20;99.90
55083;DHT22;40978;52.850;6.506;2023-02-26T04:44:12;-1.20;99.90
55083;DHT22;40978;52.850;6.506;2023-02-26T04:46:38;-1.20;99.90
55083;DHT22;40978;52.850;6.506;2023-02-26T04:49:03;-1.30;99.90
55083;DHT22;40978;52.850;6.506;2023-02-26T04:51:29;-1.30;99.90
55083;DHT22;40978;52.850;6.506;2023-02-26T04:53:55;-1.30;99.90
55083;DHT22;40978;52.850;6.506;2023-02-26T04:56:21;-1.30;99.90
55083;DHT22;40978;52.850;6.506;2023-02-26T04:58:47;-1.30;99.90
55083;DHT22;40978;52.850;6.506;2023-02-26T05:01:13;-1.40;99.90
55083;DHT22;40978;52.850;6.506;2023-02-26T05:03:39;-1.40;99.90
55083;DHT22;40978;52.850;6.506;2023-02-26T05:06:05;-1.40;99.90
55083;DHT22;40978;52.850;6.506;2023-02-26T05:08:30;-1.40;99.90
55083;DHT22;40978;52.850;6.506;2023-02-26T05:10:56;-1.40;99.90
55083;DHT22;40978;52.850;6.506;2023-02-26T05:13:22;-1.40;99.90
55083;DHT22;40978;52.850;6.506;2023-02-26T05:15:48;-1.50;99.90
55083;DHT22;40978;52.850;6.506;2023-02-26T05:18:14;-1.40;99.90
55083;DHT22;40978;52.850;6.506;2023-02-26T05:20:40;-1.50;99.90
55083;DHT22;40978;52.850;6.506;2023-02-26T05:23:06;-1.50;99.90
55083;DHT22;40978;52.850;6.506;2023-02-26T05:25:31;-1.50;99.90
55083;DHT22;40978;52.850;6.506;2023-02-26T05:27:57;-1.60;99.90
55083;DHT22;40978;52.850;6.506;2023-02-26T05:30:23;-1.60;99.90
55083;DHT22;40978;52.850;6.506;2023-02-26T05:32:48;-1.60;99.90
55083;DHT22;40978;52.850;6.506;2023-02-26T05:35:14;-1.60;99.90
55083;DHT22;40978;52.850;6.506;2023-02-26T05:37:40;-1.60;99.90
55083;DHT22;40978;52.850;6.506;2023-02-26T05:40:07;-1.60;99.90
55083;DHT22;40978;52.850;6.506;2023-02-26T05:42:37;-1.70;99.90
55083;DHT22;40978;52.850;6.506;2023-02-26T05:45:04;-1.70;99.90
55083;DHT22;40978;52.850;6.506;2023-02-26T05:47:32;-1.70;99.90
55083;DHT22;40978;52.850;6.506;2023-02-26T05:49:58;-1.80;99.90
55083;DHT22;40978;52.850;6.506;2023-02-26T05:52:23;-1.80;99.90
55083;DHT22;40978;52.850;6.506;2023-02-26T05:54:49;-1.80;99.90
55083;DHT22;40978;52.850;6.506;2023-02-26T05:57:15;-1.80;99.90
55083;DHT22;40978;52.850;6.506;2023-02-26T05:59:40;-1.90;99.90
55083;DHT22;40978;52.850;6.506;2023-02-26T06:02:06;-1.90;99.90
55083;DHT22;40978;52.850;6.506;2023-02-26T06:04:32;-1.90;99.90
55083;DHT22;40978;52.850;6.506;2023-02-26T06:06:58;-1.90;99.90
55083;DHT22;40978;52.850;6.506;2023-02-26T06:09:24;-2.00;99.90
55083;DHT22;40978;52.850;6.506;2023-02-26T06:11:50;-2.00;99.90
55083;DHT22;40978;52.850;6.506;2023-02-26T06:14:15;-2.00;99.90
55083;DHT22;40978;52.850;6.506;2023-02-26T06:16:41;-1.90;99.90
55083;DHT22;40978;52.850;6.506;2023-02-26T06:19:07;-1.90;99.90
55083;DHT22;40978;52.850;6.506;2023-02-26T06:21:32;-1.90;99.90
55083;DHT22;40978;52.850;6.506;2023-02-26T06:23:58;-1.80;99.90
55083;DHT22;40978;52.850;6.506;2023-02-26T06:26:24;-1.70;99.90
55083;DHT22;40978;52.850;6.506;2023-02-26T06:28:50;-1.60;99.90
55083;DHT22;40978;52.850;6.506;2023-02-26T06:31:15;-1.60;99.90
55083;DHT22;40978;52.850;6.506;2023-02-26T06:33:41;-1.60;99.90
55083;DHT22;40978;52.850;6.506;2023-02-26T06:36:07;-1.50;99.90
55083;DHT22;40978;52.850;6.506;2023-02-26T06:38:33;-1.50;99.90
55083;DHT22;40978;52.850;6.506;2023-02-26T06:40:58;-1.50;99.90
55083;DHT22;40978;52.850;6.506;2023-02-26T06:43:24;-1.50;99.90
55083;DHT22;40978;52.850;6.506;2023-02-26T06:45:50;-1.50;99.90
55083;DHT22;40978;52.850;6.506;2023-02-26T06:48:16;-1.50;99.90
55083;DHT22;40978;52.850;6.506;2023-02-26T06:50:41;-1.40;99.90
55083;DHT22;40978;52.850;6.506;2023-02-26T06:53:07;-1.40;99.90
55083;DHT22;40978;52.850;6.506;2023-02-26T06:55:33;-1.30;99.90
55083;DHT22;40978;52.850;6.506;2023-02-26T06:57:59;-1.30;99.90
55083;DHT22;40978;52.850;6.506;2023-02-26T07:00:25;-1.30;99.90
55083;DHT22;40978;52.850;6.506;2023-02-26T07:02:51;-1.20;99.90
55083;DHT22;40978;52.850;6.506;2023-02-26T07:05:17;-1.20;99.90
55083;DHT22;40978;52.850;6.506;2023-02-26T07:07:43;-1.10;99.90
55083;DHT22;40978;52.850;6.506;2023-02-26T07:10:10;-1.10;99.90
55083;DHT22;40978;52.850;6.506;2023-02-26T07:12:36;-1.10;99.90
55083;DHT22;40978;52.850;6.506;2023-02-26T07:15:04;-1.00;99.90
55083;DHT22;40978;52.850;6.506;2023-02-26T07:17:31;-1.00;99.90
55083;DHT22;40978;52.850;6.506;2023-02-26T07:19:56;-0.90;99.90
55083;DHT22;40978;52.850;6.506;2023-02-26T07:22:22;-0.80;99.90
55083;DHT22;40978;52.850;6.506;2023-02-26T07:24:48;-0.70;99.90
55083;DHT22;40978;52.850;6.506;2023-02-26T07:27:14;-0.60;99.90
55083;DHT22;40978;52.850;6.506;2023-02-26T07:29:40;-0.50;99.90
55083;DHT22;40978;52.850;6.506;2023-02-26T07:32:06;-0.30;99.90
55083;DHT22;40978;52.850;6.506;2023-02-26T07:34:32;-0.20;99.90
55083;DHT22;40978;52.850;6.506;2023-02-26T07:36:58;0.00;99.90
55083;DHT22;40978;52.850;6.506;2023-02-26T07:39:24;0.20;99.90
55083;DHT22;40978;52.850;6.506;2023-02-26T07:41:51;0.70;99.90
55083;DHT22;40978;52.850;6.506;2023-02-26T07:44:17;1.30;99.90
55083;DHT22;40978;52.850;6.506;2023-02-26T07:46:42;2.30;99.90
55083;DHT22;40978;52.850;6.506;2023-02-26T07:49:08;3.30;99.90
55083;DHT22;40978;52.850;6.506;2023-02-26T07:51:35;4.40;99.90
55083;DHT22;40978;52.850;6.506;2023-02-26T07:54:01;5.30;99.90
55083;DHT22;40978;52.850;6.506;2023-02-26T07:56:27;6.30;99.90
55083;DHT22;40978;52.850;6.506;2023-02-26T07:58:53;6.90;99.90
55083;DHT22;40978;52.850;6.506;2023-02-26T08:01:19;7.50;99.90
55083;DHT22;40978;52.850;6.506;2023-02-26T08:03:45;8.00;99.90
55083;DHT22;40978;52.850;6.506;2023-02-26T08:06:11;8.70;99.90
55083;DHT22;40978;52.850;6.506;2023-02-26T08:08:36;9.30;99.90
55083;DHT22;40978;52.850;6.506;2023-02-26T08:11:02;9.60;99.90
55083;DHT22;40978;52.850;6.506;2023-02-26T08:13:28;10.00;99.90
55083;DHT22;40978;52.850;6.506;2023-02-26T08:15:54;10.40;99.90
55083;DHT22;40978;52.850;6.506;2023-02-26T08:18:19;10.80;99.90
55083;DHT22;40978;52.850;6.506;2023-02-26T08:20:45;11.10;98.70
55083;DHT22;40978;52.850;6.506;2023-02-26T08:23:11;11.10;97.60
55083;DHT22;40978;52.850;6.506;2023-02-26T08:25:37;11.50;96.30
55083;DHT22;40978;52.850;6.506;2023-02-26T08:28:03;11.60;94.70
55083;DHT22;40978;52.850;6.506;2023-02-26T08:30:29;12.10;94.50
55083;DHT22;40978;52.850;6.506;2023-02-26T08:32:55;12.20;93.30
55083;DHT22;40978;52.850;6.506;2023-02-26T08:35:21;11.90;89.80
55083;DHT22;40978;52.850;6.506;2023-02-26T08:37:47;11.70;89.00
55083;DHT22;40978;52.850;6.506;2023-02-26T08:40:13;11.10;87.90
55083;DHT22;40978;52.850;6.506;2023-02-26T08:42:38;10.90;87.40
55083;DHT22;40978;52.850;6.506;2023-02-26T08:45:05;11.50;90.80
55083;DHT22;40978;52.850;6.506;2023-02-26T08:47:31;11.80;88.80
55083;DHT22;40978;52.850;6.506;2023-02-26T08:49:57;12.30;89.70
55083;DHT22;40978;52.850;6.506;2023-02-26T08:52:23;12.50;88.00
55083;DHT22;40978;52.850;6.506;2023-02-26T08:54:49;12.60;85.40
55083;DHT22;40978;52.850;6.506;2023-02-26T08:57:15;12.50;82.00
55083;DHT22;40978;52.850;6.506;2023-02-26T08:59:41;12.50;81.90
55083;DHT22;40978;52.850;6.506;2023-02-26T09:02:11;12.50;79.90
55083;DHT22;40978;52.850;6.506;2023-02-26T09:04:37;12.80;81.40
55083;DHT22;40978;52.850;6.506;2023-02-26T09:07:03;12.60;77.10
55083;DHT22;40978;52.850;6.506;2023-02-26T09:09:29;12.70;77.80
55083;DHT22;40978;52.850;6.506;2023-02-26T09:11:54;12.70;78.50
55083;DHT22;40978;52.850;6.506;2023-02-26T09:14:20;12.80;78.70
55083;DHT22;40978;52.850;6.506;2023-02-26T09:16:46;13.00;79.40
55083;DHT22;40978;52.850;6.506;2023-02-26T09:19:12;13.30;78.10
55083;DHT22;40978;52.850;6.506;2023-02-26T09:21:38;13.10;75.90
55083;DHT22;40978;52.850;6.506;2023-02-26T09:24:04;13.30;76.20
55083;DHT22;40978;52.850;6.506;2023-02-26T09:26:29;13.70;75.90
55083;DHT22;40978;52.850;6.506;2023-02-26T09:28:55;13.50;72.40
55083;DHT22;40978;52.850;6.506;2023-02-26T09:31:21;13.00;68.60
55083;DHT22;40978;52.850;6.506;2023-02-26T09:33:47;13.00;71.00
55083;DHT22;40978;52.850;6.506;2023-02-26T09:36:12;12.70;69.10
55083;DHT22;40978;52.850;6.506;2023-02-26T09:38:38;12.70;68.00
55083;DHT22;40978;52.850;6.506;2023-02-26T09:41:31;13.00;71.20
55083;DHT22;40978;52.850;6.506;2023-02-26T09:44:37;12.60;64.20
55083;DHT22;40978;52.850;6.506;2023-02-26T09:47:25;12.70;65.70
55083;DHT22;40978;52.850;6.506;2023-02-26T09:52:45;12.00;65.30
55083;DHT22;40978;52.850;6.506;2023-02-26T09:55:32;11.90;68.60
55083;DHT22;40978;52.850;6.506;2023-02-26T09:58:01;12.30;64.60
55083;DHT22;40978;52.850;6.506;2023-02-26T10:08:26;12.40;65.10
55083;DHT22;40978;52.850;6.506;2023-02-26T10:11:15;12.20;65.40
55083;DHT22;40978;52.850;6.506;2023-02-26T10:13:47;12.20;63.50
55083;DHT22;40978;52.850;6.506;2023-02-26T10:16:20;12.00;64.90
55083;DHT22;40978;52.850;6.506;2023-02-26T10:18:53;11.70;62.60
55083;DHT22;40978;52.850;6.506;2023-02-26T10:21:40;11.80;64.60
55083;DHT22;40978;52.850;6.506;2023-02-26T10:24:14;11.90;64.90
55083;DHT22;40978;52.850;6.506;2023-02-26T10:26:54;11.80;64.40
55083;DHT22;40978;52.850;6.506;2023-02-26T10:29:50;11.20;62.50
55083;DHT22;40978;52.850;6.506;2023-02-26T10:33:05;11.70;64.40
55083;DHT22;40978;52.850;6.506;2023-02-26T10:35:22;11.80;64.60
55083;DHT22;40978;52.850;6.506;2023-02-26T10:38:00;11.90;65.50
55083;DHT22;40978;52.850;6.506;2023-02-26T10:43:41;11.70;63.50
55083;DHT22;40978;52.850;6.506;2023-02-26T10:51:45;10.90;63.00
55083;DHT22;40978;52.850;6.506;2023-02-26T10:54:32;10.80;66.30
55083;DHT22;40978;52.850;6.506;2023-02-26T10:56:59;11.10;65.70
55083;DHT22;40978;52.850;6.506;2023-02-26T10:59:26;11.60;67.50
55083;DHT22;40978;52.850;6.506;2023-02-26T11:01:53;11.00;64.50
55083;DHT22;40978;52.850;6.506;2023-02-26T11:04:22;10.20;62.90
55083;DHT22;40978;52.850;6.506;2023-02-26T11:06:57;9.40;64.60
55083;DHT22;40978;52.850;6.506;2023-02-26T11:09:26;9.10;68.50
55083;DHT22;40978;52.850;6.506;2023-02-26T11:12:04;9.50;67.80
55083;DHT22;40978;52.850;6.506;2023-02-26T11:14:32;10.10;67.00
55083;DHT22;40978;52.850;6.506;2023-02-26T11:17:01;10.50;65.00
55083;DHT22;40978;52.850;6.506;2023-02-26T11:19:45;9.90;66.00
55083;DHT22;40978;52.850;6.506;2023-02-26T11:22:14;10.50;66.80
55083;DHT22;40978;52.850;6.506;2023-02-26T11:24:48;11.00;66.90
55083;DHT22;40978;52.850;6.506;2023-02-26T11:27:21;11.60;67.20
55083;DHT22;40978;52.850;6.506;2023-02-26T11:29:55;11.40;62.10
55083;DHT22;40978;52.850;6.506;2023-02-26T11:32:30;11.10;64.10
55083;DHT22;40978;52.850;6.506;2023-02-26T11:34:56;10.30;64.00
55083;DHT22;40978;52.850;6.506;2023-02-26T11:37:34;9.60;65.20
55083;DHT22;40978;52.850;6.506;2023-02-26T11:40:14;9.20;66.10
55083;DHT22;40978;52.850;6.506;2023-02-26T11:42:47;8.80;67.20
55083;DHT22;40978;52.850;6.506;2023-02-26T11:45:16;8.30;69.20
55083;DHT22;40978;52.850;6.506;2023-02-26T11:47:43;7.90;70.20
55083;DHT22;40978;52.850;6.506;2023-02-26T11:50:15;8.30;70.60
55083;DHT22;40978;52.850;6.506;2023-02-26T11:52:45;8.00;70.10
55083;DHT22;40978;52.850;6.506;2023-02-26T11:57:44;8.40;70.20
55083;DHT22;40978;52.850;6.506;2023-02-26T12:00:26;8.50;70.90
55083;DHT22;40978;52.850;6.506;2023-02-26T12:02:59;9.40;70.80
55083;DHT22;40978;52.850;6.506;2023-02-26T12:05:27;9.00;69.90
55083;DHT22;40978;52.850;6.506;2023-02-26T12:07:53;9.10;69.40
55083;DHT22;40978;52.850;6.506;2023-02-26T12:10:39;9.90;69.90
55083;DHT22;40978;52.850;6.506;2023-02-26T12:13:14;10.80;67.70
55083;DHT22;40978;52.850;6.506;2023-02-26T12:15:58;11.30;67.30
55083;DHT22;40978;52.850;6.506;2023-02-26T12:18:42;11.60;66.60
55083;DHT22;40978;52.850;6.506;2023-02-26T12:24:34;12.40;64.00
55083;DHT22;40978;52.850;6.506;2023-02-26T12:27:13;12.60;61.50
55083;DHT22;40978;52.850;6.506;2023-02-26T12:30:06;12.60;63.80
55083;DHT22;40978;52.850;6.506;2023-02-26T12:46:31;12.10;59.60
55083;DHT22;40978;52.850;6.506;2023-02-26T12:49:29;11.30;61.90
55083;DHT22;40978;52.850;6.506;2023-02-26T12:55:13;8.70;65.70
55083;DHT22;40978;52.850;6.506;2023-02-26T12:58:11;7.80;68.20
55083;DHT22;40978;52.850;6.506;2023-02-26T13:00:50;7.40;70.70
55083;DHT22;40978;52.850;6.506;2023-02-26T13:14:40;6.40;73.60
55083;DHT22;40978;52.850;6.506;2023-02-26T13:17:19;6.30;73.90
55083;DHT22;40978;52.850;6.506;2023-02-26T13:19:55;6.80;75.40
55083;DHT22;40978;52.850;6.506;2023-02-26T13:22:29;7.50;73.80
55083;DHT22;40978;52.850;6.506;2023-02-26T13:25:33;8.40;73.60
55083;DHT22;40978;52.850;6.506;2023-02-26T13:28:02;8.80;71.70
55083;DHT22;40978;52.850;6.506;2023-02-26T13:30:35;8.60;72.00
55083;DHT22;40978;52.850;6.506;2023-02-26T13:33:03;8.40;71.30
55083;DHT22;40978;52.850;6.506;2023-02-26T13:35:40;7.90;71.40
55083;DHT22;40978;52.850;6.506;2023-02-26T13:41:03;7.60;72.30
55083;DHT22;40978;52.850;6.506;2023-02-26T13:51:47;8.50;71.50
55083;DHT22;40978;52.850;6.506;2023-02-26T14:07:12;7.20;74.60
55083;DHT22;40978;52.850;6.506;2023-02-26T14:09:59;7.10;75.60
55083;DHT22;40978;52.850;6.506;2023-02-26T14:12:33;7.00;75.30
55083;DHT22;40978;52.850;6.506;2023-02-26T14:22:37;6.50;78.60
55083;DHT22;40978;52.850;6.506;2023-02-26T14:25:18;6.40;79.00
55083;DHT22;40978;52.850;6.506;2023-02-26T14:27:47;6.40;79.80
55083;DHT22;40978;52.850;6.506;2023-02-26T14:30:30;6.40;80.60
55083;DHT22;40978;52.850;6.506;2023-02-26T14:35:34;6.10;81.70
55083;DHT22;40978;52.850;6.506;2023-02-26T14:38:26;5.90;83.10
55083;DHT22;40978;52.850;6.506;2023-02-26T14:41:13;6.00;82.60
55083;DHT22;40978;52.850;6.506;2023-02-26T14:44:03;6.00;81.60
55083;DHT22;40978;52.850;6.506;2023-02-26T14:46:34;5.90;81.20
55083;DHT22;40978;52.850;6.506;2023-02-26T14:49:00;5.80;82.40
55083;DHT22;40978;52.850;6.506;2023-02-26T14:51:40;5.70;84.20
55083;DHT22;40978;52.850;6.506;2023-02-26T14:59:47;5.50;86.10
55083;DHT22;40978;52.850;6.506;2023-02-26T15:24:52;5.10;85.60
55083;DHT22;40978;52.850;6.506;2023-02-26T15:27:19;5.10;85.90
55083;DHT22;40978;52.850;6.506;2023-02-26T15:29:45;5.00;85.60
55083;DHT22;40978;52.850;6.506;2023-02-26T15:32:35;4.90;86.60
55083;DHT22;40978;52.850;6.506;2023-02-26T15:35:20;5.00;86.20
55083;DHT22;40978;52.850;6.506;2023-02-26T15:37:53;4.90;87.00
55083;DHT22;40978;52.850;6.506;2023-02-26T15:40:29;4.90;87.30
55083;DHT22;40978;52.850;6.506;2023-02-26T15:42:58;4.80;87.50
55083;DHT22;40978;52.850;6.506;2023-02-26T15:45:36;4.80;86.40
55083;DHT22;40978;52.850;6.506;2023-02-26T15:48:13;4.70;87.10
55083;DHT22;40978;52.850;6.506;2023-02-26T15:50:42;4.70;87.60
55083;DHT22;40978;52.850;6.506;2023-02-26T15:53:14;4.70;87.90
55083;DHT22;40978;52.850;6.506;2023-02-26T15:55:48;4.60;87.10
55083;DHT22;40978;52.850;6.506;2023-02-26T15:58:21;4.60;87.00
55083;DHT22;40978;52.850;6.506;2023-02-26T16:00:53;4.50;87.30
55083;DHT22;40978;52.850;6.506;2023-02-26T16:03:27;4.50;87.80
55083;DHT22;40978;52.850;6.506;2023-02-26T16:05:56;4.50;88.40
55083;DHT22;40978;52.850;6.506;2023-02-26T16:08:22;4.40;89.00
55083;DHT22;40978;52.850;6.506;2023-02-26T16:10:48;4.40;89.80
55083;DHT22;40978;52.850;6.506;2023-02-26T16:13:20;4.30;90.20
55083;DHT22;40978;52.850;6.506;2023-02-26T16:15:48;4.30;90.60
55083;DHT22;40978;52.850;6.506;2023-02-26T16:18:17;4.30;90.90
55083;DHT22;40978;52.850;6.506;2023-02-26T16:20:49;4.30;90.90
55083;DHT22;40978;52.850;6.506;2023-02-26T16:23:20;4.30;91.00
55083;DHT22;40978;52.850;6.506;2023-02-26T16:25:55;4.20;91.10
55083;DHT22;40978;52.850;6.506;2023-02-26T16:28:25;4.20;91.00
55083;DHT22;40978;52.850;6.506;2023-02-26T16:30:54;4.10;91.00
55083;DHT22;40978;52.850;6.506;2023-02-26T16:33:22;4.10;91.20
55083;DHT22;40978;52.850;6.506;2023-02-26T16:36:01;4.10;91.50
55083;DHT22;40978;52.850;6.506;2023-02-26T16:38:31;4.00;91.90
55083;DHT22;40978;52.850;6.506;2023-02-26T16:41:07;4.00;92.20
55083;DHT22;40978;52.850;6.506;2023-02-26T16:43:48;3.90;92.60
55083;DHT22;40978;52.850;6.506;2023-02-26T16:46:59;3.90;92.80
55083;DHT22;40978;52.850;6.506;2023-02-26T16:49:31;3.90;93.00
55083;DHT22;40978;52.850;6.506;2023-02-26T16:51:58;3.90;93.50
55083;DHT22;40978;52.850;6.506;2023-02-26T16:54:40;3.90;93.70
55083;DHT22;40978;52.850;6.506;2023-02-26T16:57:15;3.90;94.20
55083;DHT22;40978;52.850;6.506;2023-02-26T16:59:41;3.80;94.30
55083;DHT22;40978;52.850;6.506;2023-02-26T17:02:18;3.80;94.70
55083;DHT22;40978;52.850;6.506;2023-02-26T17:04:49;3.90;95.10
55083;DHT22;40978;52.850;6.506;2023-02-26T17:07:26;3.70;95.30
55083;DHT22;40978;52.850;6.506;2023-02-26T17:09:56;3.80;95.60
55083;DHT22;40978;52.850;6.506;2023-02-26T17:12:28;3.80;95.90
55083;DHT22;40978;52.850;6.506;2023-02-26T17:14:56;3.80;96.10
55083;DHT22;40978;52.850;6.506;2023-02-26T17:17:23;3.80;96.30
55083;DHT22;40978;52.850;6.506;2023-02-26T17:19:49;3.80;96.50
55083;DHT22;40978;52.850;6.506;2023-02-26T17:22:17;3.70;96.80
55083;DHT22;40978;52.850;6.506;2023-02-26T17:24:44;3.80;97.00
55083;DHT22;40978;52.850;6.506;2023-02-26T17:27:31;3.80;97.40
55083;DHT22;40978;52.850;6.506;2023-02-26T17:29:57;3.80;97.60
55083;DHT22;40978;52.850;6.506;2023-02-26T17:32:26;3.70;97.90
55083;DHT22;40978;52.850;6.506;2023-02-26T17:34:53;3.70;98.20
55083;DHT22;40978;52.850;6.506;2023-02-26T17:37:19;3.60;98.70
55083;DHT22;40978;52.850;6.506;2023-02-26T17:39:45;3.50;98.80
55083;DHT22;40978;52.850;6.506;2023-02-26T17:42:14;3.50;99.10
55083;DHT22;40978;52.850;6.506;2023-02-26T17:44:40;3.40;99.50
55083;DHT22;40978;52.850;6.506;2023-02-26T17:47:18;3.40;99.90
55083;DHT22;40978;52.850;6.506;2023-02-26T17:49:44;3.40;99.90
55083;DHT22;40978;52.850;6.506;2023-02-26T17:52:11;3.30;99.90
55083;DHT22;40978;52.850;6.506;2023-02-26T17:54:37;3.30;99.90
55083;DHT22;40978;52.850;6.506;2023-02-26T17:57:04;3.30;99.90
55083;DHT22;40978;52.850;6.506;2023-02-26T17:59:30;3.30;99.90
55083;DHT22;40978;52.850;6.506;2023-02-26T18:01:55;3.20;99.90
55083;DHT22;40978;52.850;6.506;2023-02-26T18:04:21;3.20;99.90
55083;DHT22;40978;52.850;6.506;2023-02-26T18:06:47;3.20;99.90
55083;DHT22;40978;52.850;6.506;2023-02-26T18:09:13;3.20;99.90
55083;DHT22;40978;52.850;6.506;2023-02-26T18:11:39;3.20;99.90
55083;DHT22;40978;52.850;6.506;2023-02-26T18:14:07;3.10;99.90
55083;DHT22;40978;52.850;6.506;2023-02-26T18:16:36;3.10;99.90
55083;DHT22;40978;52.850;6.506;2023-02-26T18:19:03;3.10;99.90
55083;DHT22;40978;52.850;6.506;2023-02-26T18:21:30;3.00;99.90
55083;DHT22;40978;52.850;6.506;2023-02-26T18:23:56;3.10;99.90
55083;DHT22;40978;52.850;6.506;2023-02-26T18:26:23;3.10;99.90
55083;DHT22;40978;52.850;6.506;2023-02-26T18:28:52;3.00;99.90